Time;durP1;ratioP1;P1;durP2;ratioP2;P2;SDS_P1;SDS_P2;PMS_P1;PMS_P2;Temp;Humidity;BMP_temperature;BMP_pressure;BME280_temperature;BME280_humidity;BME280_pressure;Samples;Min_cycle;Max_cycle;Signal;HPM_P1;HPM_P2
2021/08/12 00:01:08;;;;;;;9.75;4.00;;;23.00;62.20;;;;;;5032116;28;20029;-70
2021/08/12 00:03:34;;;;;;;7.38;4.30;;;23.10;62.40;;;;;;5033798;28;20044;-70
2021/08/12 00:06:00;;;;;;;9.00;4.43;;;23.00;62.30;;;;;;5033902;28;20033;-70
2021/08/12 00:08:26;;;;;;;7.35;4.45;;;23.00;62.40;;;;;;5033075;28;20382;-69
2021/08/12 00:10:52;;;;;;;7.13;4.68;;;23.00;62.50;;;;;;5025243;28;20431;-69
2021/08/12 00:13:19;;;;;;;7.15;4.25;;;22.90;62.50;;;;;;5033388;28;20110;-69
2021/08/12 00:15:46;;;;;;;7.47;4.40;;;22.90;62.50;;;;;;5033730;28;20021;-69
2021/08/12 00:18:12;;;;;;;9.57;4.30;;;23.00;62.50;;;;;;5032926;28;20025;-70
2021/08/12 00:20:38;;;;;;;7.35;4.25;;;23.00;62.50;;;;;;5033695;28;20039;-70
2021/08/12 00:23:04;;;;;;;7.78;3.95;;;22.90;62.50;;;;;;5033856;28;20022;-70
2021/08/12 00:25:30;;;;;;;7.00;4.13;;;22.90;62.60;;;;;;5033195;28;20040;-69
2021/08/12 00:27:56;;;;;;;6.30;3.90;;;22.90;63.30;;;;;;5034126;28;20042;-69
2021/08/12 00:30:22;;;;;;;7.57;4.10;;;22.80;62.70;;;;;;5033690;28;20022;-69
2021/08/12 00:32:47;;;;;;;8.75;4.32;;;22.80;62.80;;;;;;5033353;28;20028;-70
2021/08/12 00:35:13;;;;;;;10.48;4.25;;;22.80;62.80;;;;;;5033083;28;20021;-70
2021/08/12 00:37:39;;;;;;;6.32;4.10;;;22.70;63.00;;;;;;5034504;28;20103;-69
2021/08/12 00:40:05;;;;;;;8.30;4.00;;;22.60;63.10;;;;;;5033163;28;20401;-70
2021/08/12 00:42:31;;;;;;;6.85;4.43;;;22.70;63.20;;;;;;5032961;28;20079;-70
2021/08/12 00:44:57;;;;;;;7.20;4.18;;;22.60;64.00;;;;;;5034457;28;20104;-69
2021/08/12 00:47:23;;;;;;;7.05;4.10;;;22.60;63.40;;;;;;5033475;28;20037;-70
2021/08/12 00:49:48;;;;;;;6.38;4.28;;;22.60;63.60;;;;;;5033463;28;20028;-69
2021/08/12 00:52:15;;;;;;;9.45;4.28;;;22.60;63.70;;;;;;5031682;28;20029;-70
2021/08/12 00:54:41;;;;;;;6.65;4.30;;;22.50;63.80;;;;;;5031765;28;20021;-69
2021/08/12 00:57:09;;;;;;;7.28;4.38;;;22.50;64.00;;;;;;5033872;28;20030;-69
2021/08/12 00:59:40;;;;;;;7.20;4.03;;;22.50;64.10;;;;;;5031104;28;20452;-70
2021/08/12 01:02:13;;;;;;;7.13;4.13;;;22.50;64.90;;;;;;5031514;28;20018;-69
2021/08/12 01:04:46;;;;;;;7.43;4.30;;;22.50;64.40;;;;;;5034229;28;20408;-70
2021/08/12 01:07:23;;;;;;;11.10;4.63;;;22.50;64.60;;;;;;5033299;28;20037;-69
2021/08/12 01:10:15;;;;;;;6.78;4.00;;;22.40;64.80;;;;;;5032614;28;20029;-69
2021/08/12 01:13:04;;;;;;;8.05;4.13;;;22.40;64.90;;;;;;5032341;28;20026;-70
2021/08/12 01:15:38;;;;;;;6.82;3.92;;;22.40;65.00;;;;;;5027042;28;20410;-69
2021/08/12 01:18:27;;;;;;;7.50;3.75;;;22.40;65.10;;;;;;5031865;28;20021;-69
2021/08/12 01:21:14;;;;;;;6.85;3.72;;;22.40;65.30;;;;;;5033747;28;20026;-70
2021/08/12 01:23:40;;;;;;;8.85;4.40;;;22.30;65.40;;;;;;5034102;28;20440;-69
2021/08/12 01:26:07;;;;;;;6.95;4.00;;;22.30;65.50;;;;;;5033558;28;20030;-69
2021/08/12 01:28:40;;;;;;;6.60;4.15;;;22.30;65.60;;;;;;5032192;28;20353;-70
2021/08/12 01:31:18;;;;;;;6.78;3.90;;;22.20;65.80;;;;;;5033812;28;20028;-70
2021/08/12 01:34:19;;;;;;;6.35;3.97;;;22.20;65.90;;;;;;5033153;28;20021;-76
2021/08/12 01:36:47;;;;;;;6.13;4.00;;;22.20;66.10;;;;;;5049442;28;20041;-77
2021/08/12 01:39:15;;;;;;;6.60;4.03;;;22.10;66.20;;;;;;5043227;28;20031;-76
2021/08/12 01:41:43;;;;;;;6.55;4.28;;;22.10;66.40;;;;;;5043674;28;20067;-77
2021/08/12 01:44:12;;;;;;;8.57;4.38;;;22.10;66.70;;;;;;5041111;28;20021;-75
2021/08/12 01:46:38;;;;;;;7.43;4.30;;;22.00;66.90;;;;;;5037421;28;20116;-75
2021/08/12 01:49:06;;;;;;;7.93;4.35;;;22.00;67.00;;;;;;5032641;28;20155;-76
2021/08/12 01:51:34;;;;;;;6.25;4.15;;;22.00;67.20;;;;;;5033081;28;20040;-76
2021/08/12 01:54:01;;;;;;;8.43;4.05;;;21.90;67.50;;;;;;5022642;28;20064;-75
2021/08/12 01:56:27;;;;;;;7.85;4.47;;;21.90;67.70;;;;;;5032101;28;20048;-74
2021/08/12 01:58:57;;;;;;;7.03;4.05;;;21.90;67.80;;;;;;5030849;28;20080;-76
2021/08/12 02:01:24;;;;;;;8.15;4.40;;;21.90;68.00;;;;;;5063239;28;20037;-76
2021/08/12 02:03:50;;;;;;;9.13;4.07;;;21.80;68.10;;;;;;5016590;28;20375;-76
2021/08/12 02:06:19;;;;;;;7.05;4.57;;;21.80;68.30;;;;;;5022400;28;20040;-76
2021/08/12 02:08:44;;;;;;;6.53;4.18;;;21.70;68.40;;;;;;5031331;28;20448;-77
2021/08/12 02:11:11;;;;;;;7.35;4.28;;;21.70;68.60;;;;;;5032260;28;20104;-76
2021/08/12 02:13:37;;;;;;;7.82;4.30;;;21.70;68.70;;;;;;5031844;28;20426;-76
2021/08/12 02:16:03;;;;;;;7.13;4.60;;;21.70;68.80;;;;;;5033088;28;20026;-76
2021/08/12 02:18:28;;;;;;;7.13;4.20;;;21.60;68.90;;;;;;5032838;28;20025;-76
2021/08/12 02:21:02;;;;;;;8.43;4.63;;;21.60;69.00;;;;;;5032972;28;20348;-76
2021/08/12 02:23:36;;;;;;;8.65;4.68;;;21.60;69.10;;;;;;5031926;28;20018;-76
2021/08/12 02:26:14;;;;;;;6.70;4.35;;;21.50;69.30;;;;;;5032111;28;20033;-76
2021/08/12 02:28:41;;;;;;;10.65;4.93;;;21.50;69.40;;;;;;5031353;28;20030;-76
2021/08/12 02:31:09;;;;;;;8.10;4.30;;;21.40;69.50;;;;;;5035477;28;20029;-76
2021/08/12 02:33:37;;;;;;;7.35;4.35;;;21.40;69.60;;;;;;5036873;28;20032;-76
2021/08/12 02:36:08;;;;;;;6.57;4.45;;;21.40;69.70;;;;;;5035543;28;20463;-77
2021/08/12 02:38:37;;;;;;;10.75;4.65;;;21.40;69.80;;;;;;5036969;28;20022;-76
2021/08/12 02:41:04;;;;;;;7.15;4.43;;;21.30;69.80;;;;;;5035513;28;20031;-76
2021/08/12 02:43:30;;;;;;;7.50;4.70;;;21.30;69.80;;;;;;5036488;28;20021;-76
2021/08/12 02:45:58;;;;;;;9.63;4.75;;;21.30;69.90;;;;;;5035706;28;20040;-76
2021/08/12 02:48:27;;;;;;;7.72;4.85;;;21.20;69.90;;;;;;5035156;28;20040;-77
2021/08/12 02:50:54;;;;;;;9.75;4.80;;;21.20;70.00;;;;;;5036629;28;20448;-76
2021/08/12 02:53:21;;;;;;;8.75;5.15;;;21.20;70.10;;;;;;5036187;28;20075;-77
2021/08/12 02:55:47;;;;;;;12.02;5.10;;;21.20;70.20;;;;;;5036793;28;20049;-76
2021/08/12 02:58:14;;;;;;;8.98;4.75;;;21.20;70.50;;;;;;5032804;28;20125;-76
2021/08/12 03:00:40;;;;;;;10.07;4.70;;;21.20;70.50;;;;;;5032850;28;20017;-76
2021/08/12 03:03:08;;;;;;;7.80;4.63;;;21.20;70.30;;;;;;5035311;28;20099;-76
2021/08/12 03:05:36;;;;;;;8.57;4.82;;;21.20;70.30;;;;;;5036163;28;20048;-76
2021/08/12 03:08:02;;;;;;;9.25;5.00;;;21.20;70.30;;;;;;5040631;28;20041;-76
2021/08/12 03:10:29;;;;;;;8.90;4.95;;;21.30;70.50;;;;;;5039909;28;20025;-77
2021/08/12 03:12:58;;;;;;;9.25;4.80;;;21.50;70.60;;;;;;5051772;28;20049;-75
2021/08/12 03:15:25;;;;;;;8.02;4.70;;;21.60;70.20;;;;;;5046338;28;20022;-75
2021/08/12 03:17:52;;;;;;;9.43;4.85;;;21.80;69.90;;;;;;5041541;28;20022;-76
2021/08/12 03:20:18;;;;;;;16.20;4.97;;;21.90;69.50;;;;;;5035731;28;20056;-70
2021/08/12 03:22:44;;;;;;;7.18;4.40;;;22.00;69.40;;;;;;5035901;28;20053;-70
2021/08/12 03:25:10;;;;;;;7.28;4.53;;;22.20;69.40;;;;;;5019316;28;20029;-69
2021/08/12 03:27:36;;;;;;;9.05;4.88;;;22.40;69.00;;;;;;5028272;28;20029;-77
2021/08/12 03:30:02;;;;;;;10.73;4.88;;;22.80;68.50;;;;;;5035965;28;20071;-79
2021/08/12 03:32:28;;;;;;;8.68;4.85;;;23.10;67.90;;;;;;5034718;28;20109;-78
2021/08/12 03:34:54;;;;;;;7.30;4.28;;;23.40;67.20;;;;;;5036082;28;20480;-78
2021/08/12 03:37:19;;;;;;;7.35;4.20;;;23.70;66.50;;;;;;5034467;28;20025;-74
2021/08/12 03:39:45;;;;;;;8.13;4.30;;;24.10;65.80;;;;;;5034217;28;20028;-74
2021/08/12 03:42:11;;;;;;;9.57;5.38;;;24.30;65.00;;;;;;5033337;28;20021;-73
2021/08/12 03:44:36;;;;;;;7.57;4.40;;;24.60;64.40;;;;;;5035876;28;20079;-74
2021/08/12 03:47:03;;;;;;;9.80;4.80;;;25.00;63.70;;;;;;5035570;28;20068;-75
2021/08/12 03:49:29;;;;;;;8.23;4.53;;;25.20;62.90;;;;;;5033729;28;20025;-75
2021/08/12 03:51:54;;;;;;;8.60;4.50;;;25.50;62.10;;;;;;5024555;28;20034;-75
2021/08/12 03:54:20;;;;;;;11.20;5.18;;;25.80;61.50;;;;;;5035813;28;20112;-69
2021/08/12 03:56:45;;;;;;;9.15;5.03;;;26.00;60.90;;;;;;5042294;28;20030;-68
2021/08/12 03:59:11;;;;;;;9.30;4.70;;;26.30;60.30;;;;;;5033636;28;20116;-73
2021/08/12 04:01:37;;;;;;;8.85;4.50;;;26.50;59.70;;;;;;5034714;28;20104;-73
2021/08/12 04:04:03;;;;;;;12.65;4.70;;;26.80;59.20;;;;;;5033514;28;20028;-73
2021/08/12 04:06:29;;;;;;;8.15;4.70;;;27.00;58.30;;;;;;5034792;28;20033;-73
2021/08/12 04:08:55;;;;;;;7.95;5.13;;;27.10;57.60;;;;;;5043115;28;20410;-73
2021/08/12 04:11:21;;;;;;;8.85;4.82;;;27.30;57.30;;;;;;5041248;28;20079;-73
2021/08/12 04:13:46;;;;;;;9.57;4.32;;;27.50;57.00;;;;;;5049996;28;20021;-73
2021/08/12 04:16:12;;;;;;;7.95;4.28;;;27.60;56.90;;;;;;5042074;28;20029;-73
2021/08/12 04:18:38;;;;;;;9.93;4.45;;;28.00;56.60;;;;;;5042375;28;20026;-73
2021/08/12 04:21:05;;;;;;;7.97;4.60;;;28.20;55.80;;;;;;5033865;28;20017;-73
2021/08/12 04:23:31;;;;;;;13.02;6.30;;;28.40;55.40;;;;;;5033644;28;20021;-74
2021/08/12 04:25:56;;;;;;;7.75;4.68;;;28.60;54.80;;;;;;5033404;28;20025;-74
2021/08/12 04:28:22;;;;;;;7.28;4.70;;;28.80;54.50;;;;;;5035636;28;20040;-74
2021/08/12 04:30:50;;;;;;;6.75;4.35;;;29.00;54.80;;;;;;5044562;28;20025;-74
2021/08/12 04:33:17;;;;;;;7.68;4.40;;;29.30;53.90;;;;;;5037107;28;20063;-74
2021/08/12 04:35:43;;;;;;;7.45;4.40;;;29.60;53.30;;;;;;5044961;28;20021;-74
2021/08/12 04:38:09;;;;;;;8.98;4.65;;;29.90;52.60;;;;;;5053906;28;20076;-73
2021/08/12 04:40:35;;;;;;;7.22;4.10;;;30.00;52.00;;;;;;5051795;28;20032;-73
2021/08/12 04:43:00;;;;;;;7.35;4.53;;;30.10;51.90;;;;;;5052896;28;20375;-74
2021/08/12 04:45:27;;;;;;;6.82;4.68;;;30.20;51.40;;;;;;5042012;28;20029;-71
2021/08/12 04:47:59;;;;;;;9.32;4.47;;;30.30;51.20;;;;;;5032547;28;20574;-70
2021/08/12 04:50:24;;;;;;;8.68;4.80;;;30.40;51.10;;;;;;5032825;28;20118;-72
2021/08/12 04:52:50;;;;;;;7.72;4.68;;;30.70;50.80;;;;;;5032826;28;20072;-74
2021/08/12 04:55:16;;;;;;;8.13;4.63;;;30.80;50.60;;;;;;5032948;28;20022;-73
2021/08/12 04:57:41;;;;;;;9.88;5.53;;;31.00;50.30;;;;;;5034487;28;20026;-73
2021/08/12 05:00:08;;;;;;;7.18;4.20;;;31.10;50.10;;;;;;5034020;28;20093;-73
2021/08/12 05:02:33;;;;;;;6.30;4.28;;;31.30;49.90;;;;;;5032818;28;20083;-72
2021/08/12 05:04:59;;;;;;;10.50;4.68;;;31.50;49.80;;;;;;5034318;28;20029;-73
2021/08/12 05:07:25;;;;;;;8.23;4.78;;;31.60;49.50;;;;;;5033896;28;20056;-73
2021/08/12 05:09:50;;;;;;;9.48;4.30;;;31.80;49.10;;;;;;5031784;28;20021;-71
2021/08/12 05:12:20;;;;;;;7.03;4.22;;;31.90;49.10;;;;;;5032684;28;20104;-74
2021/08/12 05:14:47;;;;;;;6.82;4.13;;;31.80;48.60;;;;;;5031269;28;20764;-75
2021/08/12 05:17:13;;;;;;;10.77;4.55;;;31.70;48.80;;;;;;5032749;28;20045;-72
2021/08/12 05:19:40;;;;;;;8.38;4.30;;;31.90;48.60;;;;;;5033857;28;20057;-72
2021/08/12 05:22:06;;;;;;;8.07;4.47;;;32.30;48.30;;;;;;5033260;28;20083;-72
2021/08/12 05:24:31;;;;;;;5.80;4.18;;;32.30;48.00;;;;;;5031837;28;20027;-71
2021/08/12 05:26:57;;;;;;;6.80;4.10;;;32.30;48.00;;;;;;5012333;28;20025;-71
2021/08/12 05:29:23;;;;;;;8.05;4.28;;;32.40;48.20;;;;;;5028983;28;20444;-72
2021/08/12 05:31:48;;;;;;;10.27;4.30;;;32.80;48.00;;;;;;5031595;28;20471;-69
2021/08/12 05:34:14;;;;;;;7.50;4.32;;;33.10;47.50;;;;;;5032095;28;20021;-69
2021/08/12 05:36:40;;;;;;;7.25;4.10;;;33.30;47.10;;;;;;5031718;28;20152;-76
2021/08/12 05:39:05;;;;;;;8.00;4.30;;;33.40;46.60;;;;;;5033088;28;20029;-70
2021/08/12 05:41:31;;;;;;;7.63;4.40;;;33.40;46.70;;;;;;5031695;28;20028;-69
2021/08/12 05:43:56;;;;;;;8.07;4.88;;;33.70;46.30;;;;;;5030785;28;20036;-69
2021/08/12 05:46:22;;;;;;;6.18;4.05;;;33.80;46.10;;;;;;5040716;28;20110;-69
2021/08/12 05:48:48;;;;;;;10.05;4.50;;;34.00;46.40;;;;;;5047775;28;20076;-69
2021/08/12 05:51:13;;;;;;;6.75;4.40;;;34.20;46.30;;;;;;5041298;28;20026;-69
2021/08/12 05:53:39;;;;;;;7.90;4.20;;;34.20;46.00;;;;;;5031939;28;20018;-70
2021/08/12 05:56:05;;;;;;;7.47;4.55;;;34.10;45.80;;;;;;5031091;28;20029;-70
2021/08/12 05:58:33;;;;;;;7.10;4.22;;;34.20;45.80;;;;;;5031470;28;20030;-70
2021/08/12 06:00:59;;;;;;;7.38;4.07;;;34.60;45.60;;;;;;5029834;28;20513;-70
2021/08/12 06:03:24;;;;;;;7.55;3.97;;;34.90;45.50;;;;;;5031520;28;20025;-70
2021/08/12 06:05:57;;;;;;;6.75;3.92;;;34.90;45.10;;;;;;5033472;28;20026;-70
2021/08/12 06:08:23;;;;;;;8.00;4.25;;;35.20;44.90;;;;;;5036019;28;20084;-70
2021/08/12 06:10:49;;;;;;;5.95;3.72;;;35.50;44.60;;;;;;5037434;28;20057;-69
2021/08/12 06:13:15;;;;;;;5.57;3.92;;;35.50;44.20;;;;;;5037716;28;20022;-70
2021/08/12 06:15:40;;;;;;;6.03;4.20;;;35.50;44.00;;;;;;5036080;28;20071;-70
2021/08/12 06:18:08;;;;;;;6.53;4.10;;;35.50;44.10;;;;;;5037039;28;20065;-70
2021/08/12 06:20:34;;;;;;;9.70;4.40;;;35.70;43.90;;;;;;5036146;28;20375;-70
2021/08/12 06:23:00;;;;;;;6.68;4.18;;;36.00;43.50;;;;;;5035728;28;20475;-70
2021/08/12 06:25:26;;;;;;;6.15;3.95;;;36.30;43.40;;;;;;5036879;28;20021;-70
2021/08/12 06:27:52;;;;;;;6.40;4.18;;;36.50;43.40;;;;;;5037102;28;20368;-70
2021/08/12 06:30:18;;;;;;;6.90;3.97;;;36.70;42.90;;;;;;5037022;28;20025;-69
2021/08/12 06:32:43;;;;;;;6.72;3.90;;;36.60;42.60;;;;;;5035445;28;20022;-70
2021/08/12 06:35:12;;;;;;;6.72;3.90;;;36.50;42.50;;;;;;5037193;28;20022;-69
2021/08/12 06:37:53;;;;;;;6.05;3.78;;;36.40;43.00;;;;;;5036930;28;20021;-70
2021/08/12 06:40:21;;;;;;;6.63;3.42;;;36.40;42.80;;;;;;5035711;28;20373;-70
2021/08/12 06:42:48;;;;;;;5.13;3.65;;;36.50;43.10;;;;;;5036939;28;20022;-70
2021/08/12 06:45:15;;;;;;;7.80;3.83;;;36.60;42.80;;;;;;5036572;28;20032;-69
2021/08/12 06:47:41;;;;;;;9.35;3.92;;;36.80;42.60;;;;;;5035551;28;20367;-70
2021/08/12 06:50:08;;;;;;;6.07;3.50;;;36.90;42.60;;;;;;5036606;28;20030;-70
2021/08/12 06:52:35;;;;;;;6.22;3.80;;;37.00;42.10;;;;;;5035327;28;20024;-70
2021/08/12 06:55:01;;;;;;;5.95;3.83;;;36.70;41.90;;;;;;5036695;28;20076;-69
2021/08/12 06:57:27;;;;;;;7.00;3.72;;;36.50;42.40;;;;;;5035157;28;20031;-70
2021/08/12 06:59:53;;;;;;;6.53;3.60;;;36.40;42.40;;;;;;5036701;28;20097;-70
2021/08/12 07:02:19;;;;;;;5.68;3.75;;;36.70;42.60;;;;;;5036881;28;20025;-70
2021/08/12 07:04:45;;;;;;;7.05;3.88;;;36.70;42.20;;;;;;5034753;28;20423;-69
2021/08/12 07:07:11;;;;;;;6.57;3.50;;;36.70;42.30;;;;;;5036345;28;20046;-70
2021/08/12 07:09:37;;;;;;;6.40;3.63;;;36.60;42.00;;;;;;5035082;28;20132;-69
2021/08/12 07:12:03;;;;;;;7.70;3.50;;;36.60;42.10;;;;;;5036351;28;20470;-69
2021/08/12 07:14:29;;;;;;;6.82;3.80;;;36.50;42.10;;;;;;5035011;28;20040;-69
2021/08/12 07:16:54;;;;;;;5.15;3.38;;;36.60;42.00;;;;;;5036292;28;20029;-70
2021/08/12 07:19:20;;;;;;;6.68;3.65;;;36.70;42.00;;;;;;5034918;28;20519;-69
2021/08/12 07:21:46;;;;;;;7.85;3.63;;;36.80;42.20;;;;;;5034910;28;20017;-69
2021/08/12 07:24:12;;;;;;;6.78;3.78;;;36.90;41.70;;;;;;5035169;28;20021;-70
2021/08/12 07:26:38;;;;;;;6.95;3.60;;;36.90;41.60;;;;;;5035771;28;20017;-69
2021/08/12 07:29:04;;;;;;;7.32;3.65;;;36.70;41.60;;;;;;5035830;28;20025;-69
2021/08/12 07:31:30;;;;;;;7.88;3.47;;;36.60;41.70;;;;;;5034935;28;20021;-70
2021/08/12 07:33:56;;;;;;;5.72;3.67;;;36.60;42.20;;;;;;5035810;28;20013;-69
2021/08/12 07:36:22;;;;;;;5.47;3.72;;;36.60;41.90;;;;;;5035950;28;20471;-69
2021/08/12 07:38:47;;;;;;;4.30;3.42;;;36.70;42.30;;;;;;5034604;28;20444;-69
2021/08/12 07:41:13;;;;;;;5.70;3.67;;;36.70;42.10;;;;;;5035627;28;20021;-70
2021/08/12 07:43:40;;;;;;;5.47;3.67;;;36.70;42.40;;;;;;5035834;28;20048;-70
2021/08/12 07:46:06;;;;;;;6.50;3.97;;;36.80;42.00;;;;;;5035529;28;20359;-70
2021/08/12 07:48:31;;;;;;;11.77;4.40;;;36.70;41.70;;;;;;5035586;28;20025;-70
2021/08/12 07:50:57;;;;;;;5.28;4.10;;;36.80;41.60;;;;;;5034374;28;20044;-70
2021/08/12 07:53:23;;;;;;;6.65;3.65;;;36.80;41.60;;;;;;5035513;28;20508;-70
2021/08/12 07:55:48;;;;;;;4.95;3.72;;;36.70;41.60;;;;;;5035557;28;20025;-69
2021/08/12 07:58:14;;;;;;;5.85;3.45;;;36.70;41.80;;;;;;5035535;28;20021;-69
2021/08/12 08:00:40;;;;;;;4.88;3.58;;;36.60;41.40;;;;;;5036027;28;20021;-69
2021/08/12 08:03:06;;;;;;;6.57;3.80;;;36.60;41.60;;;;;;5034211;28;20025;-70
2021/08/12 08:05:32;;;;;;;6.13;3.78;;;36.80;41.90;;;;;;5034204;28;20529;-69
2021/08/12 08:07:58;;;;;;;6.82;3.38;;;36.90;41.50;;;;;;5035344;28;20049;-69
2021/08/12 08:10:26;;;;;;;6.00;3.50;;;36.90;40.80;;;;;;5035119;28;20459;-70
2021/08/12 08:12:53;;;;;;;6.68;3.20;;;36.90;40.70;;;;;;5035038;28;20084;-70
2021/08/12 08:15:20;;;;;;;5.25;3.33;;;36.90;41.00;;;;;;5035231;28;20471;-70
2021/08/12 08:17:46;;;;;;;6.65;3.33;;;37.00;40.60;;;;;;5034269;28;20021;-70
2021/08/12 08:20:12;;;;;;;5.80;3.50;;;37.20;40.80;;;;;;5035096;28;20023;-70
2021/08/12 08:22:39;;;;;;;6.13;3.33;;;37.40;40.30;;;;;;5034957;28;20025;-70
2021/08/12 08:25:06;;;;;;;4.70;3.38;;;37.40;39.80;;;;;;5035114;28;20092;-70
2021/08/12 08:27:32;;;;;;;5.57;3.08;;;37.10;39.50;;;;;;5033919;28;20029;-70
2021/08/12 08:29:58;;;;;;;7.25;3.33;;;36.80;39.40;;;;;;5035067;28;20030;-70
2021/08/12 08:32:25;;;;;;;5.68;3.55;;;36.80;39.80;;;;;;5033570;28;20034;-70
2021/08/12 08:34:51;;;;;;;5.97;3.25;;;37.10;39.60;;;;;;5034757;28;20060;-70
2021/08/12 08:37:18;;;;;;;4.68;2.80;;;37.40;39.50;;;;;;5033583;28;20049;-70
2021/08/12 08:39:44;;;;;;;5.85;3.20;;;37.40;39.10;;;;;;5033258;28;20053;-70
2021/08/12 08:42:12;;;;;;;5.70;3.28;;;37.30;38.80;;;;;;5034989;28;20032;-70
2021/08/12 08:44:40;;;;;;;5.38;3.40;;;37.20;38.60;;;;;;5034767;28;20022;-69
2021/08/12 08:47:08;;;;;;;4.75;3.20;;;37.20;38.90;;;;;;5033306;28;20367;-70
2021/08/12 08:49:37;;;;;;;5.28;3.67;;;37.10;38.60;;;;;;5033359;28;20445;-70
2021/08/12 08:52:03;;;;;;;6.70;3.63;;;37.20;39.10;;;;;;5034214;28;20026;-70
2021/08/12 08:54:31;;;;;;;6.00;3.20;;;37.30;38.60;;;;;;5034716;28;20022;-70
2021/08/12 08:56:57;;;;;;;6.55;3.35;;;37.30;38.40;;;;;;5033136;28;20360;-70
2021/08/12 08:59:24;;;;;;;7.07;3.63;;;37.20;38.30;;;;;;5033590;28;20379;-70
2021/08/12 09:01:49;;;;;;;5.85;3.40;;;37.10;38.50;;;;;;5032889;28;20022;-70
2021/08/12 09:04:15;;;;;;;5.65;3.05;;;37.10;38.10;;;;;;5034304;28;20030;-70
2021/08/12 09:06:41;;;;;;;6.55;3.40;;;37.20;38.30;;;;;;5033820;28;20471;-70
2021/08/12 09:09:07;;;;;;;4.53;3.25;;;37.20;38.00;;;;;;5034532;28;20025;-70
2021/08/12 09:11:33;;;;;;;7.38;3.65;;;37.20;37.80;;;;;;5032904;28;20478;-70
2021/08/12 09:13:59;;;;;;;5.72;3.03;;;37.20;37.60;;;;;;5034194;28;20022;-69
2021/08/12 09:16:34;;;;;;;5.45;2.88;;;37.00;37.30;;;;;;5032887;28;20418;-69
2021/08/12 09:19:25;;;;;;;6.53;2.90;;;37.10;38.00;;;;;;5032742;28;20105;-69
2021/08/12 09:21:53;;;;;;;8.43;2.95;;;37.00;37.20;;;;;;5034124;28;20032;-69
2021/08/12 09:24:20;;;;;;;5.35;3.10;;;37.00;37.60;;;;;;5034426;28;20115;-69
2021/08/12 09:26:46;;;;;;;6.88;2.88;;;37.10;37.90;;;;;;5033774;28;20022;-69
2021/08/12 09:29:29;;;;;;;8.68;2.97;;;37.30;37.40;;;;;;5033817;28;20467;-69
2021/08/12 09:32:04;;;;;;;4.80;2.90;;;37.30;37.00;;;;;;5033919;28;20032;-70
2021/08/12 09:35:05;;;;;;;4.30;2.85;;;37.40;37.10;;;;;;5034214;28;20155;-69
2021/08/12 09:37:33;;;;;;;4.65;2.80;;;37.40;36.60;;;;;;5025545;28;20033;-69
2021/08/12 09:40:03;;;;;;;6.50;2.90;;;37.30;36.30;;;;;;5033809;28;20021;-69
2021/08/12 09:42:29;;;;;;;4.68;2.55;;;37.10;36.50;;;;;;5032828;28;20523;-69
2021/08/12 09:44:54;;;;;;;5.25;2.50;;;37.20;36.80;;;;;;5034195;28;20152;-69
2021/08/12 09:47:29;;;;;;;4.45;2.70;;;37.30;36.60;;;;;;5033105;28;20029;-69
2021/08/12 09:49:57;;;;;;;4.47;2.40;;;37.30;36.50;;;;;;5032740;28;20474;-69
2021/08/12 09:52:35;;;;;;;5.00;2.45;;;37.30;35.90;;;;;;5033677;28;20022;-69
2021/08/12 09:55:12;;;;;;;6.03;2.50;;;37.30;35.90;;;;;;5033657;28;20356;-69
2021/08/12 09:57:45;;;;;;;4.38;2.35;;;37.20;35.80;;;;;;5032317;28;20022;-70
2021/08/12 10:00:24;;;;;;;4.20;2.38;;;37.20;35.80;;;;;;5033688;28;20360;-70
2021/08/12 10:02:50;;;;;;;8.88;2.38;;;37.30;36.00;;;;;;5032414;28;20464;-70
2021/08/12 10:05:16;;;;;;;4.72;2.40;;;37.30;35.80;;;;;;5033268;28;20070;-70
2021/08/12 10:07:46;;;;;;;6.03;2.30;;;37.50;35.70;;;;;;5033278;28;20566;-69
2021/08/12 10:10:18;;;;;;;5.80;1.85;;;37.60;35.50;;;;;;5033337;28;20029;-72
2021/08/12 10:12:56;;;;;;;4.13;2.10;;;37.60;35.60;;;;;;5032330;28;20068;-69
2021/08/12 10:15:29;;;;;;;4.30;2.20;;;37.70;35.30;;;;;;5033618;28;20036;-70
2021/08/12 10:17:58;;;;;;;5.83;3.10;;;37.50;34.80;;;;;;5033294;28;20032;-69
2021/08/12 10:20:30;;;;;;;5.50;1.77;;;37.30;34.70;;;;;;5032027;28;20025;-70
2021/08/12 10:22:58;;;;;;;4.30;1.90;;;37.10;34.50;;;;;;5032250;28;20371;-69
2021/08/12 10:25:25;;;;;;;4.40;2.05;;;37.00;34.50;;;;;;5033100;28;20013;-70
2021/08/12 10:27:53;;;;;;;5.30;2.08;;;37.20;34.80;;;;;;5033339;28;20471;-70
2021/08/12 10:30:21;;;;;;;3.85;1.90;;;37.20;35.20;;;;;;5034330;28;20440;-70
2021/08/12 10:32:59;;;;;;;5.88;1.88;;;37.20;34.90;;;;;;5032064;28;20071;-70
2021/08/12 10:35:27;;;;;;;4.05;2.33;;;37.10;34.80;;;;;;5032287;28;20349;-70
2021/08/12 10:37:54;;;;;;;4.70;1.90;;;36.90;35.10;;;;;;5032106;28;20026;-70
2021/08/12 10:40:22;;;;;;;4.97;2.10;;;36.80;35.10;;;;;;5033273;28;20022;-69
2021/08/12 10:42:49;;;;;;;2.70;1.80;;;36.60;35.20;;;;;;5031664;28;20026;-69
2021/08/12 10:45:20;;;;;;;7.40;2.10;;;36.50;36.10;;;;;;5033271;28;20105;-69
2021/08/12 10:47:55;;;;;;;3.70;2.10;;;36.50;35.70;;;;;;5032225;28;20025;-69
2021/08/12 10:50:31;;;;;;;6.40;1.92;;;36.60;35.40;;;;;;5033403;28;20029;-70
2021/08/12 10:55:52;;;;;;;5.45;2.10;;;36.70;35.00;;;;;;5036806;28;20383;-70
2021/08/12 10:58:17;;;;;;;4.60;1.95;;;36.70;35.20;;;;;;5034790;28;20029;-70
2021/08/12 11:00:54;;;;;;;4.80;2.22;;;36.70;35.00;;;;;;5035563;28;20032;-70
2021/08/12 11:03:32;;;;;;;5.35;2.40;;;36.60;35.20;;;;;;5037070;28;20033;-70
2021/08/12 11:06:11;;;;;;;10.20;2.28;;;36.70;35.50;;;;;;5035375;28;20056;-70
2021/08/12 11:08:49;;;;;;;4.15;2.28;;;36.70;35.60;;;;;;5035172;28;20049;-70
2021/08/12 11:11:21;;;;;;;4.10;2.38;;;36.60;35.50;;;;;;5036368;28;20024;-70
2021/08/12 11:13:51;;;;;;;6.95;3.05;;;36.30;35.70;;;;;;5036435;28;20052;-70
2021/08/12 11:16:18;;;;;;;4.60;2.10;;;36.00;35.60;;;;;;5036684;28;20026;-70
2021/08/12 11:18:55;;;;;;;4.60;2.42;;;35.90;36.10;;;;;;5036386;28;20018;-70
2021/08/12 11:21:30;;;;;;;4.75;2.58;;;35.80;36.20;;;;;;5035206;28;20032;-69
2021/08/12 11:24:00;;;;;;;6.47;2.08;;;35.80;36.30;;;;;;5034997;28;20128;-70
2021/08/12 11:26:26;;;;;;;4.80;2.30;;;35.60;36.60;;;;;;5035662;28;20021;-70
2021/08/12 11:28:55;;;;;;;4.05;2.22;;;35.60;36.40;;;;;;5036674;28;20430;-70
2021/08/12 11:31:21;;;;;;;4.05;2.03;;;35.40;36.30;;;;;;5035877;28;20100;-70
2021/08/12 11:33:48;;;;;;;7.68;2.42;;;35.10;36.80;;;;;;5035933;28;20104;-70
2021/08/12 11:36:20;;;;;;;4.30;1.95;;;34.50;36.80;;;;;;5034624;28;20443;-70
2021/08/12 11:39:07;;;;;;;5.97;2.40;;;33.90;37.20;;;;;;5034712;28;20032;-70
2021/08/12 11:41:40;;;;;;;4.18;2.38;;;33.30;37.90;;;;;;5035236;28;20026;-69
2021/08/12 11:44:14;;;;;;;7.15;2.38;;;32.60;38.60;;;;;;5035767;28;20478;-69
2021/08/12 11:46:41;;;;;;;5.10;2.25;;;32.10;39.20;;;;;;5035850;28;20026;-69
2021/08/12 11:49:11;;;;;;;7.60;2.05;;;31.60;39.50;;;;;;5035608;28;20036;-69
2021/08/12 11:51:37;;;;;;;4.38;2.00;;;31.20;39.60;;;;;;5034531;28;20495;-69
2021/08/12 11:54:03;;;;;;;6.32;2.60;;;30.80;40.20;;;;;;5035651;28;20027;-69
2021/08/12 11:56:32;;;;;;;3.83;2.25;;;30.70;41.20;;;;;;5035594;28;20360;-69
2021/08/12 11:58:59;;;;;;;7.00;2.30;;;30.50;41.70;;;;;;5035742;28;20083;-71
2021/08/12 12:01:27;;;;;;;5.30;2.55;;;30.40;42.30;;;;;;5035589;28;20057;-69
2021/08/12 12:04:04;;;;;;;4.78;2.63;;;30.20;42.40;;;;;;5032856;28;20056;-69
2021/08/12 12:06:49;;;;;;;3.78;2.17;;;30.00;42.90;;;;;;5034181;28;20036;-69
2021/08/12 12:09:21;;;;;;;4.68;2.13;;;29.90;43.00;;;;;;5034253;28;20048;-69
2021/08/12 12:12:09;;;;;;;4.90;2.42;;;29.80;43.10;;;;;;5033966;28;20025;-69
2021/08/12 12:14:37;;;;;;;4.03;2.30;;;29.70;43.30;;;;;;5034712;28;20079;-67
2021/08/12 12:17:12;;;;;;;4.80;2.75;;;29.50;43.60;;;;;;5035123;28;20036;-69
2021/08/12 12:20:04;;;;;;;7.38;2.33;;;29.40;43.90;;;;;;5034161;28;20459;-69
2021/08/12 12:22:30;;;;;;;5.07;2.30;;;29.30;44.00;;;;;;5035062;28;20017;-68
2021/08/12 12:24:58;;;;;;;5.32;2.55;;;29.20;44.10;;;;;;5034816;28;20025;-69
2021/08/12 12:27:25;;;;;;;5.10;2.33;;;29.20;44.70;;;;;;5033776;28;20025;-69
2021/08/12 12:29:50;;;;;;;7.32;2.47;;;29.10;44.60;;;;;;5033736;28;20033;-69
2021/08/12 12:32:19;;;;;;;4.60;2.30;;;29.10;44.70;;;;;;5033705;28;20021;-69
2021/08/12 12:34:55;;;;;;;4.40;2.10;;;29.00;44.80;;;;;;5034717;28;20028;-69
2021/08/12 12:37:22;;;;;;;4.55;2.28;;;29.10;45.80;;;;;;5033537;28;20357;-69
2021/08/12 12:39:49;;;;;;;4.85;2.45;;;29.00;45.00;;;;;;5033823;28;20017;-69
2021/08/12 12:42:17;;;;;;;4.20;2.30;;;29.00;45.10;;;;;;5034883;28;20017;-69
2021/08/12 12:45:06;;;;;;;5.00;2.45;;;29.00;45.20;;;;;;5033396;28;20116;-69
2021/08/12 12:47:32;;;;;;;3.65;2.22;;;28.90;45.20;;;;;;5034318;28;20030;-69
2021/08/12 12:50:11;;;;;;;5.65;2.20;;;28.80;45.40;;;;;;5033723;28;20065;-69
2021/08/12 12:53:04;;;;;;;4.72;2.30;;;28.80;45.70;;;;;;5034434;28;20021;-69
2021/08/12 12:55:35;;;;;;;5.88;2.55;;;28.80;45.70;;;;;;5033356;28;20017;-69